Medicine Hat Airport, Alberta

Past 24 Hour Conditions

This table is a summary of hourly weather conditions for the past 24 hours. This summary includes the following parameters: temperature, humidity, dew point, wind speed and direction, air pressure, visibility and/or wind chill and humidex.
Date / Time
(MDT)
Conditions Temp (°F) Humidity (%) Dew Point (°F) Wind (mph) Pressure (inches) Visibility (miles)
01 September 2014
8:00 Partly Cloudy 50 87 47 SSW 7 29.9 30
7:00 Partly Cloudy 49   86 45 WNW 7 29.9 30
6:00 Mostly Cloudy 50 84 46 WSW 10 29.9 10
5:00 Clear 50 86 46 SW 6 29.9 10
4:00 Mostly Cloudy 53 87 50 SSW 14 gust 20 29.9 10
3:00 Cloudy 54 86 50 WNW 7 29.9 10
2:00 Cloudy 55 79 49 NNW 10 29.9 10
1:00 Cloudy 52 88 49 calm 29.9 10
00:00 Mostly Cloudy 52 88 48 SSW 10 29.8 10
31 August 2014
23:00 Mostly Cloudy 52 82 47 SE 3 29.8 10
22:00 Clear 53 83 48 SSE 5 29.9 10
21:00 Mainly Clear 58 71 49 S 2 29.9 15
20:00 Mainly Sunny 59 68 48 S 2 29.8 30
19:00 Partly Cloudy 65 45 43 calm 29.8 30
18:00 Partly Cloudy 63 62 50 ESE 4 29.8 30
17:00 Mostly Cloudy 66 50 47 SW 4 29.8 30
16:00 Light Rainshower 67 52 49 NNE 5 29.8 30
15:00 Mostly Cloudy 68 41 43 NNW 6 29.8 30
14:00 Partly Cloudy 71   36 43 NW 11 29.8 30
13:00 Partly Cloudy 68 42 44 N 9 gust 19 29.8 30
12:00 Partly Cloudy 68 46 47 NNW 14 gust 22 29.8 30
11:00 Partly Cloudy 64 61 51 W 6 29.8 30
10:00 Mainly Sunny 58 73 50 NW 5 29.8 30
9:00 Mainly Sunny 53 83 48 SSW 3 29.8 30
8:00 Partly Cloudy 49   86 45 SW 6 29.8 30
N/A
Not available
 ↑ 
Highest temperature
 ↓ 
Lowest temperature

If you require additional historical weather information, please visit Climate Data Online.